createdAt,value
2023-01-22T00:01:05.233Z,15.18
2023-01-22T00:07:07.156Z,15.30
2023-01-22T00:13:08.985Z,18.52
2023-01-22T00:19:11.657Z,15.05
2023-01-22T00:25:13.857Z,14.18
2023-01-22T00:31:17.422Z,13.85
2023-01-22T00:37:20.460Z,16.05
2023-01-22T00:43:22.297Z,15.27
2023-01-22T00:49:24.385Z,17.50
2023-01-22T00:55:26.336Z,17.35
2023-01-22T01:01:28.299Z,17.15
2023-01-22T01:07:30.242Z,19.77
2023-01-22T01:13:38.189Z,21.85
2023-01-22T01:19:40.110Z,18.02
2023-01-22T01:25:42.510Z,18.80
2023-01-22T01:31:44.405Z,19.00
2023-01-22T01:37:46.373Z,17.35
2023-01-22T01:44:14.055Z,16.15
2023-01-22T01:50:19.308Z,17.90
2023-01-22T01:56:26.459Z,18.80
2023-01-22T02:02:28.308Z,19.08
2023-01-22T02:08:30.365Z,19.08
2023-01-22T02:14:38.620Z,18.67
2023-01-22T02:20:41.227Z,17.25
2023-01-22T02:26:45.704Z,18.20
2023-01-22T02:32:47.632Z,18.35
2023-01-22T02:38:49.698Z,14.30
2023-01-22T02:44:53.112Z,16.35
2023-01-22T02:50:55.020Z,14.25
2023-01-22T02:56:56.811Z,14.15
2023-01-22T03:02:58.786Z,15.27
2023-01-22T03:09:01.557Z,16.40
2023-01-22T03:15:21.940Z,15.95
2023-01-22T03:21:23.779Z,14.55
2023-01-22T03:27:27.882Z,14.30
2023-01-22T03:33:30.275Z,16.03
2023-01-22T03:39:33.026Z,14.93
2023-01-22T03:45:35.691Z,14.32
2023-01-22T03:51:38.129Z,15.77
2023-01-22T03:57:40.286Z,16.80
2023-01-22T04:03:43.300Z,13.73
2023-01-22T04:09:45.406Z,16.17
2023-01-22T04:15:47.618Z,14.98
2023-01-22T04:21:49.602Z,14.73
2023-01-22T04:27:51.373Z,15.80
2023-01-22T04:33:53.134Z,14.50
2023-01-22T04:39:55.040Z,12.48
2023-01-22T04:45:57.036Z,12.65
2023-01-22T04:51:59.070Z,14.23
2023-01-22T04:58:02.282Z,11.98
2023-01-22T05:04:04.263Z,12.38
2023-01-22T05:10:06.683Z,12.73
2023-01-22T05:16:08.677Z,11.07
2023-01-22T05:22:10.800Z,10.50
2023-01-22T05:28:12.797Z,12.02
2023-01-22T05:34:14.617Z,12.93
2023-01-22T05:40:16.873Z,12.70
2023-01-22T05:46:19.087Z,16.02
2023-01-22T05:52:21.036Z,12.63
2023-01-22T05:58:22.929Z,12.95
2023-01-22T06:04:24.921Z,13.30
2023-01-22T06:10:26.815Z,12.73
2023-01-22T06:16:28.789Z,13.68
2023-01-22T06:22:30.866Z,15.90
2023-01-22T06:28:32.812Z,15.88
2023-01-22T06:34:34.717Z,13.88
2023-01-22T06:40:36.602Z,18.33
2023-01-22T06:46:38.495Z,16.75
2023-01-22T06:52:40.377Z,17.25
2023-01-22T06:58:42.324Z,14.82
2023-01-22T07:04:44.161Z,17.65
2023-01-22T07:10:45.957Z,19.13
2023-01-22T07:16:48.467Z,19.45
2023-01-22T07:22:51.802Z,16.60
2023-01-22T07:28:53.636Z,15.63
2023-01-22T07:34:55.445Z,18.20
2023-01-22T07:41:02.347Z,14.63
2023-01-22T07:47:04.275Z,19.17
2023-01-22T07:53:07.321Z,15.90
2023-01-22T07:59:09.227Z,21.42
2023-01-22T08:05:13.903Z,17.55
2023-01-22T08:17:18.149Z,16.38
2023-01-22T08:23:21.853Z,13.32
2023-01-22T08:29:24.079Z,14.40
2023-01-22T08:35:25.957Z,13.32
2023-01-22T08:41:27.752Z,14.85
2023-01-22T08:47:29.685Z,17.83
2023-01-22T08:53:31.459Z,14.88
2023-01-22T08:59:33.347Z,12.98
2023-01-22T09:05:38.473Z,11.60
2023-01-22T09:11:41.079Z,14.05
2023-01-22T09:17:42.989Z,11.20
2023-01-22T09:23:45.092Z,12.52
2023-01-22T09:29:46.943Z,16.98
2023-01-22T09:35:48.734Z,14.95
2023-01-22T09:41:55.454Z,16.83
2023-01-22T09:48:00.704Z,11.55
2023-01-22T09:54:04.824Z,15.00
2023-01-22T10:00:13.706Z,13.82
2023-01-22T10:06:23.047Z,17.58
2023-01-22T10:12:30.025Z,18.52
2023-01-22T10:18:50.014Z,18.75
2023-01-22T10:24:53.066Z,14.68
2023-01-22T10:30:58.746Z,14.95
2023-01-22T10:37:05.172Z,16.13
2023-01-22T10:43:13.409Z,12.57
2023-01-22T10:49:29.641Z,12.43
2023-01-22T10:55:36.613Z,17.35
2023-01-22T11:01:43.375Z,16.75
2023-01-22T11:07:48.327Z,16.60
2023-01-22T11:14:04.454Z,15.30
2023-01-22T11:20:36.710Z,15.50
2023-01-22T11:27:04.602Z,12.73
2023-01-22T11:33:21.504Z,18.58
2023-01-22T11:39:39.496Z,16.05
2023-01-22T11:45:56.474Z,16.42
2023-01-22T11:52:04.030Z,18.13
2023-01-22T11:58:20.904Z,14.70
2023-01-22T12:05:07.848Z,17.27
2023-01-22T12:11:26.171Z,18.17
2023-01-22T12:17:39.937Z,20.13
2023-01-22T12:23:46.148Z,15.60
2023-01-22T12:30:05.489Z,21.83
2023-01-22T12:36:10.001Z,17.83
2023-01-22T12:42:34.507Z,19.60
2023-01-22T12:49:06.025Z,15.45
2023-01-22T12:55:44.095Z,19.92
2023-01-22T13:01:46.252Z,25.33
2023-01-22T13:07:50.181Z,15.50
2023-01-22T13:14:09.926Z,15.67
2023-01-22T13:20:20.631Z,29.40
2023-01-22T13:26:25.924Z,23.42
2023-01-22T13:32:29.481Z,24.88
2023-01-22T13:38:35.046Z,20.40
2023-01-22T13:44:40.526Z,23.05
2023-01-22T13:50:47.568Z,32.88
2023-01-22T13:56:49.605Z,33.55
2023-01-22T14:02:51.558Z,25.48
2023-01-22T14:08:55.703Z,26.33
2023-01-22T14:14:57.514Z,27.10
2023-01-22T14:20:59.550Z,25.08
2023-01-22T14:27:01.330Z,19.38
2023-01-22T14:33:03.630Z,22.95
2023-01-22T14:39:06.830Z,22.42
2023-01-22T14:45:10.148Z,21.50
2023-01-22T14:51:12.317Z,21.77
2023-01-22T14:57:14.299Z,31.42
2023-01-22T15:03:16.084Z,31.65
2023-01-22T15:09:17.876Z,56.45
2023-01-22T15:15:25.254Z,35.22
2023-01-22T15:21:27.219Z,45.65
2023-01-22T15:27:29.152Z,105.10
2023-01-22T15:33:30.914Z,79.57
2023-01-22T15:39:33.911Z,106.38
2023-01-22T15:45:35.809Z,133.90
2023-01-22T15:51:38.280Z,42.67
2023-01-22T15:57:40.670Z,45.60
2023-01-22T16:03:42.510Z,97.72
2023-01-22T16:09:44.320Z,63.15
2023-01-22T16:15:55.928Z,128.48
2023-01-22T16:21:57.701Z,78.57
2023-01-22T16:27:59.589Z,25.38
2023-01-22T16:34:08.110Z,45.22
2023-01-22T16:40:10.612Z,43.70
2023-01-22T16:46:13.592Z,29.83
2023-01-22T16:52:22.444Z,38.05
2023-01-22T16:58:25.051Z,34.95
2023-01-22T17:04:28.166Z,29.58
2023-01-22T17:10:30.065Z,19.35
2023-01-22T17:16:31.987Z,21.63
2023-01-22T17:22:35.969Z,28.65
2023-01-22T17:28:39.588Z,24.23
2023-01-22T17:34:42.290Z,25.85
2023-01-22T17:40:44.216Z,27.30
2023-01-22T17:46:49.132Z,23.55
2023-01-22T17:52:52.067Z,44.78
2023-01-22T17:59:00.590Z,38.00
2023-01-22T18:05:02.744Z,25.70
2023-01-22T18:11:09.953Z,31.48
2023-01-22T18:17:11.875Z,25.17
2023-01-22T18:23:15.104Z,23.65
2023-01-22T18:29:17.192Z,29.88
2023-01-22T18:35:19.260Z,34.53
2023-01-22T18:41:26.564Z,34.70
2023-01-22T18:47:28.547Z,31.92
2023-01-22T18:53:32.340Z,33.97
2023-01-22T18:59:34.134Z,48.33
2023-01-22T19:05:39.424Z,42.60
2023-01-22T19:11:47.336Z,46.47
2023-01-22T19:17:49.242Z,36.55
2023-01-22T19:23:54.067Z,28.45
2023-01-22T19:35:58.169Z,37.25
2023-01-22T19:42:03.073Z,58.67
2023-01-22T19:48:07.772Z,47.17
2023-01-22T19:54:10.260Z,41.15
2023-01-22T20:00:12.844Z,51.33
2023-01-22T20:06:16.556Z,38.15
2023-01-22T20:12:18.452Z,85.35
2023-01-22T20:18:20.418Z,53.40
2023-01-22T20:24:22.249Z,44.22
2023-01-22T20:30:24.160Z,44.22
2023-01-22T20:36:29.805Z,40.80
2023-01-22T20:42:31.809Z,45.28
2023-01-22T20:48:34.512Z,44.42
2023-01-22T20:54:42.782Z,56.47
2023-01-22T21:00:52.445Z,51.33
2023-01-22T21:06:54.318Z,47.00
2023-01-22T21:12:56.113Z,36.40
2023-01-22T21:19:05.349Z,43.55
2023-01-22T21:25:07.474Z,50.95
2023-01-22T21:31:12.390Z,63.00
2023-01-22T21:37:14.214Z,42.80
2023-01-22T21:43:35.141Z,46.70
2023-01-22T21:49:37.133Z,41.85
2023-01-22T21:55:39.095Z,47.65
2023-01-22T22:01:41.395Z,44.90
2023-01-22T22:07:43.821Z,43.05
2023-01-22T22:13:45.743Z,40.85
2023-01-22T22:19:47.597Z,43.88
2023-01-22T22:25:49.433Z,46.40
2023-01-22T22:31:51.464Z,41.22
2023-01-22T22:37:53.299Z,62.72
2023-01-22T22:43:56.339Z,29.95
2023-01-22T22:49:58.178Z,37.97
2023-01-22T22:55:59.972Z,29.23
2023-01-22T23:02:01.830Z,38.30
2023-01-22T23:08:03.974Z,59.25
2023-01-22T23:14:06.624Z,71.68
2023-01-22T23:20:09.135Z,76.70
2023-01-22T23:26:13.929Z,146.40
2023-01-22T23:38:17.795Z,84.88
2023-01-22T23:44:19.746Z,52.88
2023-01-22T23:50:21.717Z,45.75
2023-01-22T23:56:26.494Z,48.38
